sensor_id;sensor_type;location;lat;lon;timestamp;P1;durP1;ratioP1;P2;durP2;ratioP2
49061;SDS011;34873;49.142;9.118;2022-11-15T00:00:45;5.13;;;2.95;;
49061;SDS011;34873;49.142;9.118;2022-11-15T00:03:32;5.25;;;3.03;;
49061;SDS011;34873;49.142;9.118;2022-11-15T00:06:16;4.72;;;3.42;;
49061;SDS011;34873;49.142;9.118;2022-11-15T00:09:00;7.43;;;2.80;;
49061;SDS011;34873;49.142;9.118;2022-11-15T00:14:28;8.18;;;2.75;;
49061;SDS011;34873;49.142;9.118;2022-11-15T00:17:12;4.90;;;3.22;;
49061;SDS011;34873;49.142;9.118;2022-11-15T00:19:59;5.40;;;3.08;;
49061;SDS011;34873;49.142;9.118;2022-11-15T00:22:43;6.03;;;2.70;;
49061;SDS011;34873;49.142;9.118;2022-11-15T00:25:29;4.60;;;2.63;;
49061;SDS011;34873;49.142;9.118;2022-11-15T00:28:16;5.78;;;3.00;;
49061;SDS011;34873;49.142;9.118;2022-11-15T00:31:01;4.43;;;2.80;;
49061;SDS011;34873;49.142;9.118;2022-11-15T00:33:49;3.65;;;2.58;;
49061;SDS011;34873;49.142;9.118;2022-11-15T00:36:36;6.82;;;2.70;;
49061;SDS011;34873;49.142;9.118;2022-11-15T00:39:22;4.35;;;2.90;;
49061;SDS011;34873;49.142;9.118;2022-11-15T00:42:06;5.18;;;2.80;;
49061;SDS011;34873;49.142;9.118;2022-11-15T00:44:52;4.40;;;2.72;;
49061;SDS011;34873;49.142;9.118;2022-11-15T00:47:39;3.92;;;2.65;;
49061;SDS011;34873;49.142;9.118;2022-11-15T00:50:23;6.90;;;2.80;;
49061;SDS011;34873;49.142;9.118;2022-11-15T00:53:07;5.90;;;2.65;;
49061;SDS011;34873;49.142;9.118;2022-11-15T00:55:50;6.47;;;3.30;;
49061;SDS011;34873;49.142;9.118;2022-11-15T00:58:34;4.65;;;3.05;;
49061;SDS011;34873;49.142;9.118;2022-11-15T01:01:23;5.50;;;2.88;;
49061;SDS011;34873;49.142;9.118;2022-11-15T01:04:07;4.97;;;2.60;;
49061;SDS011;34873;49.142;9.118;2022-11-15T01:06:56;2.95;;;2.40;;
49061;SDS011;34873;49.142;9.118;2022-11-15T01:09:43;4.28;;;3.20;;
49061;SDS011;34873;49.142;9.118;2022-11-15T01:12:29;4.88;;;2.92;;
49061;SDS011;34873;49.142;9.118;2022-11-15T01:15:13;3.25;;;2.53;;
49061;SDS011;34873;49.142;9.118;2022-11-15T01:18:00;4.07;;;2.50;;
49061;SDS011;34873;49.142;9.118;2022-11-15T01:20:49;3.60;;;2.70;;
49061;SDS011;34873;49.142;9.118;2022-11-15T01:23:36;3.83;;;2.80;;
49061;SDS011;34873;49.142;9.118;2022-11-15T01:26:20;3.50;;;2.20;;
49061;SDS011;34873;49.142;9.118;2022-11-15T01:29:04;6.63;;;3.00;;
49061;SDS011;34873;49.142;9.118;2022-11-15T01:31:50;4.15;;;2.88;;
49061;SDS011;34873;49.142;9.118;2022-11-15T01:34:37;5.43;;;2.80;;
49061;SDS011;34873;49.142;9.118;2022-11-15T01:37:23;3.97;;;2.78;;
49061;SDS011;34873;49.142;9.118;2022-11-15T01:40:07;3.53;;;2.22;;
49061;SDS011;34873;49.142;9.118;2022-11-15T01:42:57;4.32;;;2.80;;
49061;SDS011;34873;49.142;9.118;2022-11-15T01:45:40;2.85;;;2.40;;
49061;SDS011;34873;49.142;9.118;2022-11-15T01:48:25;3.80;;;2.60;;
49061;SDS011;34873;49.142;9.118;2022-11-15T01:51:13;4.40;;;2.67;;
49061;SDS011;34873;49.142;9.118;2022-11-15T01:54:01;2.97;;;2.40;;
49061;SDS011;34873;49.142;9.118;2022-11-15T01:56:51;4.13;;;2.75;;
49061;SDS011;34873;49.142;9.118;2022-11-15T01:59:41;4.45;;;2.60;;
49061;SDS011;34873;49.142;9.118;2022-11-15T02:02:28;3.58;;;2.67;;
49061;SDS011;34873;49.142;9.118;2022-11-15T02:05:12;3.80;;;2.50;;
49061;SDS011;34873;49.142;9.118;2022-11-15T02:07:56;4.47;;;2.88;;
49061;SDS011;34873;49.142;9.118;2022-11-15T02:10:40;3.85;;;2.53;;
49061;SDS011;34873;49.142;9.118;2022-11-15T02:13:27;4.53;;;2.92;;
49061;SDS011;34873;49.142;9.118;2022-11-15T02:31:10;2.97;;;2.13;;
49061;SDS011;34873;49.142;9.118;2022-11-15T02:43:43;4.63;;;2.38;;
49061;SDS011;34873;49.142;9.118;2022-11-15T02:46:47;3.58;;;2.20;;
49061;SDS011;34873;49.142;9.118;2022-11-15T02:49:57;3.70;;;2.28;;
49061;SDS011;34873;49.142;9.118;2022-11-15T02:52:46;3.80;;;2.25;;
49061;SDS011;34873;49.142;9.118;2022-11-15T03:01:12;7.45;;;2.38;;
49061;SDS011;34873;49.142;9.118;2022-11-15T03:07:24;2.42;;;1.88;;
49061;SDS011;34873;49.142;9.118;2022-11-15T03:18:59;3.13;;;1.92;;
49061;SDS011;34873;49.142;9.118;2022-11-15T03:21:48;3.38;;;2.30;;
49061;SDS011;34873;49.142;9.118;2022-11-15T03:24:33;3.40;;;2.53;;
49061;SDS011;34873;49.142;9.118;2022-11-15T03:27:19;6.45;;;2.22;;
49061;SDS011;34873;49.142;9.118;2022-11-15T03:30:07;2.72;;;2.10;;
49061;SDS011;34873;49.142;9.118;2022-11-15T03:32:56;2.10;;;1.90;;
49061;SDS011;34873;49.142;9.118;2022-11-15T03:35:42;2.47;;;2.25;;
49061;SDS011;34873;49.142;9.118;2022-11-15T03:38:30;3.35;;;2.40;;
49061;SDS011;34873;49.142;9.118;2022-11-15T03:41:25;2.55;;;2.05;;
49061;SDS011;34873;49.142;9.118;2022-11-15T03:49:53;10.35;;;2.10;;
49061;SDS011;34873;49.142;9.118;2022-11-15T03:52:41;3.53;;;2.40;;
49061;SDS011;34873;49.142;9.118;2022-11-15T03:55:26;4.45;;;2.75;;
49061;SDS011;34873;49.142;9.118;2022-11-15T03:58:10;3.90;;;2.20;;
49061;SDS011;34873;49.142;9.118;2022-11-15T04:00:56;2.63;;;1.95;;
49061;SDS011;34873;49.142;9.118;2022-11-15T04:03:40;3.17;;;1.85;;
49061;SDS011;34873;49.142;9.118;2022-11-15T04:06:24;2.55;;;2.30;;
49061;SDS011;34873;49.142;9.118;2022-11-15T04:09:11;6.88;;;2.05;;
49061;SDS011;34873;49.142;9.118;2022-11-15T04:11:55;2.78;;;2.17;;
49061;SDS011;34873;49.142;9.118;2022-11-15T04:14:41;5.70;;;2.20;;
49061;SDS011;34873;49.142;9.118;2022-11-15T04:17:50;2.25;;;2.05;;
49061;SDS011;34873;49.142;9.118;2022-11-15T04:20:35;2.10;;;1.88;;
49061;SDS011;34873;49.142;9.118;2022-11-15T04:23:38;3.78;;;1.92;;
49061;SDS011;34873;49.142;9.118;2022-11-15T04:26:41;2.10;;;1.80;;
49061;SDS011;34873;49.142;9.118;2022-11-15T04:29:25;2.55;;;2.00;;
49061;SDS011;34873;49.142;9.118;2022-11-15T04:32:21;2.58;;;2.00;;
49061;SDS011;34873;49.142;9.118;2022-11-15T04:35:07;3.97;;;2.10;;
49061;SDS011;34873;49.142;9.118;2022-11-15T04:37:52;3.65;;;2.05;;
49061;SDS011;34873;49.142;9.118;2022-11-15T04:40:36;2.17;;;1.98;;
49061;SDS011;34873;49.142;9.118;2022-11-15T04:43:20;5.55;;;2.10;;
49061;SDS011;34873;49.142;9.118;2022-11-15T04:46:09;2.47;;;2.22;;
49061;SDS011;34873;49.142;9.118;2022-11-15T04:48:53;2.28;;;1.80;;
49061;SDS011;34873;49.142;9.118;2022-11-15T04:51:38;2.53;;;2.10;;
49061;SDS011;34873;49.142;9.118;2022-11-15T04:54:24;2.97;;;2.10;;
49061;SDS011;34873;49.142;9.118;2022-11-15T04:57:08;2.72;;;1.77;;
49061;SDS011;34873;49.142;9.118;2022-11-15T04:59:52;2.75;;;1.88;;
49061;SDS011;34873;49.142;9.118;2022-11-15T05:02:36;2.58;;;2.03;;
49061;SDS011;34873;49.142;9.118;2022-11-15T05:05:38;2.10;;;1.80;;
49061;SDS011;34873;49.142;9.118;2022-11-15T05:08:25;2.55;;;2.17;;
49061;SDS011;34873;49.142;9.118;2022-11-15T05:11:11;2.83;;;1.83;;
49061;SDS011;34873;49.142;9.118;2022-11-15T05:13:58;3.45;;;1.95;;
49061;SDS011;34873;49.142;9.118;2022-11-15T05:16:44;3.35;;;1.90;;
49061;SDS011;34873;49.142;9.118;2022-11-15T05:19:28;3.92;;;1.80;;
49061;SDS011;34873;49.142;9.118;2022-11-15T05:22:14;1.77;;;1.67;;
49061;SDS011;34873;49.142;9.118;2022-11-15T05:24:58;2.53;;;2.20;;
49061;SDS011;34873;49.142;9.118;2022-11-15T05:27:42;1.83;;;1.73;;
49061;SDS011;34873;49.142;9.118;2022-11-15T05:30:26;2.25;;;1.77;;
49061;SDS011;34873;49.142;9.118;2022-11-15T05:33:10;1.73;;;1.63;;
49061;SDS011;34873;49.142;9.118;2022-11-15T05:35:56;2.05;;;1.50;;
49061;SDS011;34873;49.142;9.118;2022-11-15T05:38:44;2.08;;;1.80;;
49061;SDS011;34873;49.142;9.118;2022-11-15T05:42:30;2.78;;;2.00;;
49061;SDS011;34873;49.142;9.118;2022-11-15T05:44:45;3.70;;;1.40;;
49061;SDS011;34873;49.142;9.118;2022-11-15T05:47:30;1.88;;;1.55;;
49061;SDS011;34873;49.142;9.118;2022-11-15T05:50:17;3.95;;;1.85;;
49061;SDS011;34873;49.142;9.118;2022-11-15T05:53:04;2.15;;;1.50;;
49061;SDS011;34873;49.142;9.118;2022-11-15T05:55:49;2.67;;;1.65;;
49061;SDS011;34873;49.142;9.118;2022-11-15T05:58:38;2.42;;;1.70;;
49061;SDS011;34873;49.142;9.118;2022-11-15T06:01:22;2.30;;;1.60;;
49061;SDS011;34873;49.142;9.118;2022-11-15T06:04:07;1.67;;;1.58;;
49061;SDS011;34873;49.142;9.118;2022-11-15T06:06:53;2.55;;;1.83;;
49061;SDS011;34873;49.142;9.118;2022-11-15T06:09:37;1.50;;;1.40;;
49061;SDS011;34873;49.142;9.118;2022-11-15T06:12:23;2.17;;;1.55;;
49061;SDS011;34873;49.142;9.118;2022-11-15T06:15:07;1.77;;;1.67;;
49061;SDS011;34873;49.142;9.118;2022-11-15T06:17:51;2.63;;;1.95;;
49061;SDS011;34873;49.142;9.118;2022-11-15T06:20:40;2.65;;;1.85;;
49061;SDS011;34873;49.142;9.118;2022-11-15T06:23:24;2.05;;;1.80;;
49061;SDS011;34873;49.142;9.118;2022-11-15T06:26:10;2.15;;;1.77;;
49061;SDS011;34873;49.142;9.118;2022-11-15T06:28:54;1.60;;;1.50;;
49061;SDS011;34873;49.142;9.118;2022-11-15T06:31:41;3.60;;;2.10;;
49061;SDS011;34873;49.142;9.118;2022-11-15T06:34:27;1.52;;;1.35;;
49061;SDS011;34873;49.142;9.118;2022-11-15T06:37:14;1.95;;;1.60;;
49061;SDS011;34873;49.142;9.118;2022-11-15T06:39:58;3.42;;;1.55;;
49061;SDS011;34873;49.142;9.118;2022-11-15T06:42:44;4.53;;;1.70;;
49061;SDS011;34873;49.142;9.118;2022-11-15T06:45:28;2.05;;;1.67;;
49061;SDS011;34873;49.142;9.118;2022-11-15T06:48:12;1.77;;;1.60;;
49061;SDS011;34873;49.142;9.118;2022-11-15T06:50:57;1.63;;;1.50;;
49061;SDS011;34873;49.142;9.118;2022-11-15T06:53:44;4.57;;;1.58;;
49061;SDS011;34873;49.142;9.118;2022-11-15T06:56:30;1.95;;;1.70;;
49061;SDS011;34873;49.142;9.118;2022-11-15T06:59:14;1.92;;;1.73;;
49061;SDS011;34873;49.142;9.118;2022-11-15T07:01:58;4.43;;;1.52;;
49061;SDS011;34873;49.142;9.118;2022-11-15T07:04:42;2.58;;;1.60;;
49061;SDS011;34873;49.142;9.118;2022-11-15T07:07:26;3.10;;;1.90;;
49061;SDS011;34873;49.142;9.118;2022-11-15T07:10:12;1.85;;;1.48;;
49061;SDS011;34873;49.142;9.118;2022-11-15T07:12:56;2.75;;;1.60;;
49061;SDS011;34873;49.142;9.118;2022-11-15T07:15:40;3.35;;;1.80;;
49061;SDS011;34873;49.142;9.118;2022-11-15T07:18:24;3.33;;;1.50;;
49061;SDS011;34873;49.142;9.118;2022-11-15T07:21:09;2.60;;;1.45;;
49061;SDS011;34873;49.142;9.118;2022-11-15T07:23:57;2.83;;;1.50;;
49061;SDS011;34873;49.142;9.118;2022-11-15T07:26:41;2.28;;;1.80;;
49061;SDS011;34873;49.142;9.118;2022-11-15T07:29:24;3.67;;;2.10;;
49061;SDS011;34873;49.142;9.118;2022-11-15T07:32:09;1.85;;;1.67;;
49061;SDS011;34873;49.142;9.118;2022-11-15T07:34:56;2.42;;;1.98;;
49061;SDS011;34873;49.142;9.118;2022-11-15T07:37:39;3.55;;;1.70;;
49061;SDS011;34873;49.142;9.118;2022-11-15T07:40:26;2.85;;;1.60;;
49061;SDS011;34873;49.142;9.118;2022-11-15T07:43:14;2.67;;;1.60;;
49061;SDS011;34873;49.142;9.118;2022-11-15T07:45:59;2.03;;;1.55;;
49061;SDS011;34873;49.142;9.118;2022-11-15T07:48:48;1.77;;;1.48;;
49061;SDS011;34873;49.142;9.118;2022-11-15T07:51:35;2.67;;;1.30;;
49061;SDS011;34873;49.142;9.118;2022-11-15T07:54:19;2.03;;;1.77;;
49061;SDS011;34873;49.142;9.118;2022-11-15T07:57:05;2.63;;;1.67;;
49061;SDS011;34873;49.142;9.118;2022-11-15T07:59:50;1.40;;;1.30;;
49061;SDS011;34873;49.142;9.118;2022-11-15T08:02:34;2.83;;;1.42;;
49061;SDS011;34873;49.142;9.118;2022-11-15T08:05:21;2.15;;;1.35;;
49061;SDS011;34873;49.142;9.118;2022-11-15T08:08:05;2.03;;;1.77;;
49061;SDS011;34873;49.142;9.118;2022-11-15T08:10:52;2.72;;;1.70;;
49061;SDS011;34873;49.142;9.118;2022-11-15T08:13:36;1.52;;;1.40;;
49061;SDS011;34873;49.142;9.118;2022-11-15T08:16:20;2.13;;;1.45;;
49061;SDS011;34873;49.142;9.118;2022-11-15T08:19:04;1.85;;;1.60;;
49061;SDS011;34873;49.142;9.118;2022-11-15T08:21:48;8.13;;;1.63;;
49061;SDS011;34873;49.142;9.118;2022-11-15T08:24:32;2.50;;;1.60;;
49061;SDS011;34873;49.142;9.118;2022-11-15T08:27:16;2.00;;;1.50;;
49061;SDS011;34873;49.142;9.118;2022-11-15T08:29:59;2.67;;;1.70;;
49061;SDS011;34873;49.142;9.118;2022-11-15T08:32:43;1.52;;;1.33;;
49061;SDS011;34873;49.142;9.118;2022-11-15T08:35:30;2.88;;;1.50;;
49061;SDS011;34873;49.142;9.118;2022-11-15T08:38:16;2.67;;;1.60;;
49061;SDS011;34873;49.142;9.118;2022-11-15T08:41:01;2.63;;;1.50;;
49061;SDS011;34873;49.142;9.118;2022-11-15T08:43:46;3.83;;;1.50;;
49061;SDS011;34873;49.142;9.118;2022-11-15T08:46:30;12.38;;;1.33;;
49061;SDS011;34873;49.142;9.118;2022-11-15T08:49:14;1.92;;;1.40;;
49061;SDS011;34873;49.142;9.118;2022-11-15T08:51:58;1.67;;;1.45;;
49061;SDS011;34873;49.142;9.118;2022-11-15T08:54:42;2.55;;;1.80;;
49061;SDS011;34873;49.142;9.118;2022-11-15T08:57:28;6.18;;;1.50;;
49061;SDS011;34873;49.142;9.118;2022-11-15T09:00:14;3.72;;;1.52;;
49061;SDS011;34873;49.142;9.118;2022-11-15T09:02:58;8.30;;;1.40;;
49061;SDS011;34873;49.142;9.118;2022-11-15T09:05:42;6.90;;;2.20;;
49061;SDS011;34873;49.142;9.118;2022-11-15T09:08:29;6.05;;;1.98;;
49061;SDS011;34873;49.142;9.118;2022-11-15T09:11:13;5.32;;;2.13;;
49061;SDS011;34873;49.142;9.118;2022-11-15T09:13:59;3.63;;;1.90;;
49061;SDS011;34873;49.142;9.118;2022-11-15T09:16:43;7.97;;;2.35;;
49061;SDS011;34873;49.142;9.118;2022-11-15T09:19:30;5.60;;;1.98;;
49061;SDS011;34873;49.142;9.118;2022-11-15T09:22:14;3.47;;;1.45;;
49061;SDS011;34873;49.142;9.118;2022-11-15T09:24:58;4.75;;;1.90;;
49061;SDS011;34873;49.142;9.118;2022-11-15T09:27:42;3.05;;;1.58;;
49061;SDS011;34873;49.142;9.118;2022-11-15T09:30:26;7.05;;;2.00;;
49061;SDS011;34873;49.142;9.118;2022-11-15T09:33:10;5.82;;;2.10;;
49061;SDS011;34873;49.142;9.118;2022-11-15T09:35:59;3.47;;;1.48;;
49061;SDS011;34873;49.142;9.118;2022-11-15T09:38:46;6.38;;;2.53;;
49061;SDS011;34873;49.142;9.118;2022-11-15T09:53:10;3.22;;;2.10;;
49061;SDS011;34873;49.142;9.118;2022-11-15T09:55:44;6.57;;;2.08;;
49061;SDS011;34873;49.142;9.118;2022-11-15T10:01:28;5.13;;;1.80;;
49061;SDS011;34873;49.142;9.118;2022-11-15T10:03:57;3.10;;;2.10;;
49061;SDS011;34873;49.142;9.118;2022-11-15T10:06:26;7.15;;;3.22;;
49061;SDS011;34873;49.142;9.118;2022-11-15T10:09:06;7.28;;;2.95;;
49061;SDS011;34873;49.142;9.118;2022-11-15T10:11:35;5.68;;;1.73;;
49061;SDS011;34873;49.142;9.118;2022-11-15T10:14:17;6.32;;;2.03;;
49061;SDS011;34873;49.142;9.118;2022-11-15T10:17:00;2.70;;;2.00;;
49061;SDS011;34873;49.142;9.118;2022-11-15T10:19:38;3.08;;;1.90;;
49061;SDS011;34873;49.142;9.118;2022-11-15T10:22:27;3.83;;;1.77;;
49061;SDS011;34873;49.142;9.118;2022-11-15T10:25:01;4.75;;;2.47;;
49061;SDS011;34873;49.142;9.118;2022-11-15T10:27:35;4.43;;;2.13;;
49061;SDS011;34873;49.142;9.118;2022-11-15T10:30:04;4.15;;;2.28;;
49061;SDS011;34873;49.142;9.118;2022-11-15T10:32:34;3.35;;;1.70;;
49061;SDS011;34873;49.142;9.118;2022-11-15T10:35:00;2.15;;;1.63;;
49061;SDS011;34873;49.142;9.118;2022-11-15T10:37:50;5.53;;;1.85;;
49061;SDS011;34873;49.142;9.118;2022-11-15T10:40:20;3.63;;;1.98;;
49061;SDS011;34873;49.142;9.118;2022-11-15T10:42:47;2.97;;;2.03;;
49061;SDS011;34873;49.142;9.118;2022-11-15T10:45:28;4.22;;;1.80;;
49061;SDS011;34873;49.142;9.118;2022-11-15T10:47:59;2.92;;;2.03;;
49061;SDS011;34873;49.142;9.118;2022-11-15T10:50:43;2.35;;;1.70;;
49061;SDS011;34873;49.142;9.118;2022-11-15T10:53:55;2.92;;;2.25;;
49061;SDS011;34873;49.142;9.118;2022-11-15T10:56:05;3.47;;;1.90;;
49061;SDS011;34873;49.142;9.118;2022-11-15T10:58:43;5.00;;;2.28;;
49061;SDS011;34873;49.142;9.118;2022-11-15T11:03:39;5.10;;;1.85;;
49061;SDS011;34873;49.142;9.118;2022-11-15T11:08:35;4.75;;;2.10;;
49061;SDS011;34873;49.142;9.118;2022-11-15T11:11:02;7.20;;;2.00;;
49061;SDS011;34873;49.142;9.118;2022-11-15T11:18:28;4.05;;;1.70;;
49061;SDS011;34873;49.142;9.118;2022-11-15T11:21:04;2.33;;;1.70;;
49061;SDS011;34873;49.142;9.118;2022-11-15T11:26:05;1.73;;;1.48;;
49061;SDS011;34873;49.142;9.118;2022-11-15T11:31:33;4.50;;;1.63;;
49061;SDS011;34873;49.142;9.118;2022-11-15T11:42:17;2.95;;;1.80;;
49061;SDS011;34873;49.142;9.118;2022-11-15T11:45:19;4.50;;;2.10;;
49061;SDS011;34873;49.142;9.118;2022-11-15T11:50:36;2.92;;;1.80;;
49061;SDS011;34873;49.142;9.118;2022-11-15T12:01:00;2.63;;;1.77;;
49061;SDS011;34873;49.142;9.118;2022-11-15T12:17:00;1.98;;;1.73;;
49061;SDS011;34873;49.142;9.118;2022-11-15T12:19:29;2.08;;;1.35;;
49061;SDS011;34873;49.142;9.118;2022-11-15T12:24:43;2.22;;;1.50;;
49061;SDS011;34873;49.142;9.118;2022-11-15T12:29:51;2.50;;;1.40;;
49061;SDS011;34873;49.142;9.118;2022-11-15T12:32:28;4.72;;;2.10;;
49061;SDS011;34873;49.142;9.118;2022-11-15T12:34:58;1.58;;;1.33;;
49061;SDS011;34873;49.142;9.118;2022-11-15T12:42:59;1.98;;;1.60;;
49061;SDS011;34873;49.142;9.118;2022-11-15T12:45:44;1.88;;;1.48;;
49061;SDS011;34873;49.142;9.118;2022-11-15T13:07:07;1.90;;;1.70;;
49061;SDS011;34873;49.142;9.118;2022-11-15T13:12:03;2.65;;;1.80;;
49061;SDS011;34873;49.142;9.118;2022-11-15T13:14:47;5.03;;;1.55;;
49061;SDS011;34873;49.142;9.118;2022-11-15T13:33:29;2.17;;;1.30;;
49061;SDS011;34873;49.142;9.118;2022-11-15T13:36:23;3.53;;;1.55;;
49061;SDS011;34873;49.142;9.118;2022-11-15T13:38:58;3.13;;;1.85;;
49061;SDS011;34873;49.142;9.118;2022-11-15T13:41:28;3.25;;;1.60;;
49061;SDS011;34873;49.142;9.118;2022-11-15T13:43:58;3.10;;;1.50;;
49061;SDS011;34873;49.142;9.118;2022-11-15T13:46:25;2.67;;;1.50;;
49061;SDS011;34873;49.142;9.118;2022-11-15T13:49:02;2.72;;;1.55;;
49061;SDS011;34873;49.142;9.118;2022-11-15T13:54:16;3.37;;;1.80;;
49061;SDS011;34873;49.142;9.118;2022-11-15T13:57:03;2.50;;;1.52;;
49061;SDS011;34873;49.142;9.118;2022-11-15T13:59:34;5.72;;;1.55;;
49061;SDS011;34873;49.142;9.118;2022-11-15T14:02:20;2.00;;;1.30;;
49061;SDS011;34873;49.142;9.118;2022-11-15T14:04:55;1.70;;;1.60;;
49061;SDS011;34873;49.142;9.118;2022-11-15T14:09:53;1.48;;;1.38;;
49061;SDS011;34873;49.142;9.118;2022-11-15T14:15:25;1.88;;;1.65;;
49061;SDS011;34873;49.142;9.118;2022-11-15T14:18:01;3.08;;;1.35;;
49061;SDS011;34873;49.142;9.118;2022-11-15T14:22:59;2.55;;;1.15;;
49061;SDS011;34873;49.142;9.118;2022-11-15T14:25:27;5.70;;;1.85;;
49061;SDS011;34873;49.142;9.118;2022-11-15T14:28:10;1.40;;;1.30;;
49061;SDS011;34873;49.142;9.118;2022-11-15T14:30:53;3.35;;;1.50;;
49061;SDS011;34873;49.142;9.118;2022-11-15T14:33:23;2.15;;;1.23;;
49061;SDS011;34873;49.142;9.118;2022-11-15T14:35:56;1.73;;;1.25;;
49061;SDS011;34873;49.142;9.118;2022-11-15T14:38:23;2.38;;;1.25;;
49061;SDS011;34873;49.142;9.118;2022-11-15T14:40:52;2.33;;;1.70;;
49061;SDS011;34873;49.142;9.118;2022-11-15T14:43:18;2.40;;;1.50;;
49061;SDS011;34873;49.142;9.118;2022-11-15T14:45:46;3.05;;;1.60;;
49061;SDS011;34873;49.142;9.118;2022-11-15T14:48:12;3.85;;;1.60;;
49061;SDS011;34873;49.142;9.118;2022-11-15T14:50:37;3.30;;;1.05;;
49061;SDS011;34873;49.142;9.118;2022-11-15T14:53:04;2.50;;;1.60;;
49061;SDS011;34873;49.142;9.118;2022-11-15T14:55:33;2.78;;;1.75;;
49061;SDS011;34873;49.142;9.118;2022-11-15T14:58:02;12.73;;;8.18;;
49061;SDS011;34873;49.142;9.118;2022-11-15T15:00:29;26.42;;;15.93;;
49061;SDS011;34873;49.142;9.118;2022-11-15T15:02:58;41.75;;;25.10;;
49061;SDS011;34873;49.142;9.118;2022-11-15T15:07:58;31.10;;;19.20;;
49061;SDS011;34873;49.142;9.118;2022-11-15T15:10:24;34.42;;;20.73;;
49061;SDS011;34873;49.142;9.118;2022-11-15T15:12:53;35.55;;;20.73;;
49061;SDS011;34873;49.142;9.118;2022-11-15T15:15:22;34.67;;;20.88;;
49061;SDS011;34873;49.142;9.118;2022-11-15T15:17:52;33.97;;;20.02;;
49061;SDS011;34873;49.142;9.118;2022-11-15T15:20:17;33.97;;;20.52;;
49061;SDS011;34873;49.142;9.118;2022-11-15T15:22:43;33.60;;;20.20;;
49061;SDS011;34873;49.142;9.118;2022-11-15T15:25:28;39.33;;;21.80;;
49061;SDS011;34873;49.142;9.118;2022-11-15T15:27:58;37.72;;;21.92;;
49061;SDS011;34873;49.142;9.118;2022-11-15T15:30:24;37.22;;;21.83;;
49061;SDS011;34873;49.142;9.118;2022-11-15T15:32:50;37.08;;;20.98;;
49061;SDS011;34873;49.142;9.118;2022-11-15T15:35:16;37.40;;;21.80;;
49061;SDS011;34873;49.142;9.118;2022-11-15T15:37:42;35.00;;;20.50;;
49061;SDS011;34873;49.142;9.118;2022-11-15T15:40:19;33.28;;;20.02;;
49061;SDS011;34873;49.142;9.118;2022-11-15T15:42:45;34.60;;;20.77;;
49061;SDS011;34873;49.142;9.118;2022-11-15T15:45:11;35.80;;;20.30;;
49061;SDS011;34873;49.142;9.118;2022-11-15T15:47:41;34.55;;;19.85;;
49061;SDS011;34873;49.142;9.118;2022-11-15T15:50:21;30.55;;;18.23;;
49061;SDS011;34873;49.142;9.118;2022-11-15T15:52:50;35.58;;;20.42;;
49061;SDS011;34873;49.142;9.118;2022-11-15T15:55:16;33.38;;;19.27;;
49061;SDS011;34873;49.142;9.118;2022-11-15T15:57:42;31.73;;;20.13;;
49061;SDS011;34873;49.142;9.118;2022-11-15T16:00:08;30.13;;;18.20;;
49061;SDS011;34873;49.142;9.118;2022-11-15T16:02:37;31.90;;;18.15;;
49061;SDS011;34873;49.142;9.118;2022-11-15T16:05:03;34.25;;;19.63;;
49061;SDS011;34873;49.142;9.118;2022-11-15T16:07:29;33.92;;;19.10;;
49061;SDS011;34873;49.142;9.118;2022-11-15T16:09:55;33.67;;;20.27;;
49061;SDS011;34873;49.142;9.118;2022-11-15T16:12:27;40.85;;;22.17;;
49061;SDS011;34873;49.142;9.118;2022-11-15T16:14:58;41.50;;;24.30;;
49061;SDS011;34873;49.142;9.118;2022-11-15T16:17:26;35.78;;;21.67;;
49061;SDS011;34873;49.142;9.118;2022-11-15T16:19:54;33.42;;;20.45;;
49061;SDS011;34873;49.142;9.118;2022-11-15T16:22:20;30.35;;;15.98;;
49061;SDS011;34873;49.142;9.118;2022-11-15T16:24:48;17.92;;;10.68;;
49061;SDS011;34873;49.142;9.118;2022-11-15T16:27:16;13.50;;;8.13;;
49061;SDS011;34873;49.142;9.118;2022-11-15T16:29:43;11.73;;;7.03;;
49061;SDS011;34873;49.142;9.118;2022-11-15T16:32:09;7.70;;;5.55;;
49061;SDS011;34873;49.142;9.118;2022-11-15T16:34:35;8.65;;;4.28;;
49061;SDS011;34873;49.142;9.118;2022-11-15T16:37:03;10.70;;;4.70;;
49061;SDS011;34873;49.142;9.118;2022-11-15T16:39:28;11.88;;;5.72;;
49061;SDS011;34873;49.142;9.118;2022-11-15T16:41:58;13.52;;;6.65;;
49061;SDS011;34873;49.142;9.118;2022-11-15T16:44:24;13.00;;;6.82;;
49061;SDS011;34873;49.142;9.118;2022-11-15T16:46:52;13.60;;;7.43;;
49061;SDS011;34873;49.142;9.118;2022-11-15T16:49:18;13.57;;;6.93;;
49061;SDS011;34873;49.142;9.118;2022-11-15T16:51:45;15.38;;;6.82;;
49061;SDS011;34873;49.142;9.118;2022-11-15T16:54:14;14.02;;;6.43;;
49061;SDS011;34873;49.142;9.118;2022-11-15T16:56:39;11.20;;;6.55;;
49061;SDS011;34873;49.142;9.118;2022-11-15T16:59:08;13.32;;;6.00;;
49061;SDS011;34873;49.142;9.118;2022-11-15T17:01:39;10.82;;;6.45;;
49061;SDS011;34873;49.142;9.118;2022-11-15T17:04:13;13.25;;;6.05;;
49061;SDS011;34873;49.142;9.118;2022-11-15T17:06:41;10.90;;;6.32;;
49061;SDS011;34873;49.142;9.118;2022-11-15T17:09:10;14.40;;;6.72;;
49061;SDS011;34873;49.142;9.118;2022-11-15T17:11:38;8.88;;;6.15;;
49061;SDS011;34873;49.142;9.118;2022-11-15T17:14:05;11.18;;;6.63;;
49061;SDS011;34873;49.142;9.118;2022-11-15T17:16:32;11.13;;;6.38;;
49061;SDS011;34873;49.142;9.118;2022-11-15T17:19:00;14.20;;;5.30;;
49061;SDS011;34873;49.142;9.118;2022-11-15T17:21:26;13.68;;;5.93;;
49061;SDS011;34873;49.142;9.118;2022-11-15T17:23:52;15.57;;;7.07;;
49061;SDS011;34873;49.142;9.118;2022-11-15T17:26:20;18.45;;;8.95;;
49061;SDS011;34873;49.142;9.118;2022-11-15T17:28:46;18.83;;;7.40;;
49061;SDS011;34873;49.142;9.118;2022-11-15T17:31:14;18.65;;;7.30;;
49061;SDS011;34873;49.142;9.118;2022-11-15T17:33:40;16.02;;;7.68;;
49061;SDS011;34873;49.142;9.118;2022-11-15T17:36:06;15.35;;;7.32;;
49061;SDS011;34873;49.142;9.118;2022-11-15T17:38:36;15.80;;;7.72;;
49061;SDS011;34873;49.142;9.118;2022-11-15T17:41:02;12.82;;;6.95;;
49061;SDS011;34873;49.142;9.118;2022-11-15T17:43:28;16.80;;;7.60;;
49061;SDS011;34873;49.142;9.118;2022-11-15T17:45:57;16.13;;;7.70;;
49061;SDS011;34873;49.142;9.118;2022-11-15T17:48:23;15.88;;;7.82;;
49061;SDS011;34873;49.142;9.118;2022-11-15T17:50:55;15.63;;;7.30;;
49061;SDS011;34873;49.142;9.118;2022-11-15T17:53:32;13.13;;;7.00;;
49061;SDS011;34873;49.142;9.118;2022-11-15T17:56:12;15.30;;;6.95;;
49061;SDS011;34873;49.142;9.118;2022-11-15T17:58:38;14.30;;;7.85;;
49061;SDS011;34873;49.142;9.118;2022-11-15T18:03:32;20.33;;;7.35;;
49061;SDS011;34873;49.142;9.118;2022-11-15T18:05:59;16.25;;;7.63;;
49061;SDS011;34873;49.142;9.118;2022-11-15T18:08:24;13.48;;;7.68;;
49061;SDS011;34873;49.142;9.118;2022-11-15T18:10:50;13.60;;;7.20;;
49061;SDS011;34873;49.142;9.118;2022-11-15T18:13:15;12.30;;;7.22;;
49061;SDS011;34873;49.142;9.118;2022-11-15T18:15:46;13.27;;;7.13;;
49061;SDS011;34873;49.142;9.118;2022-11-15T18:18:17;14.85;;;7.10;;
49061;SDS011;34873;49.142;9.118;2022-11-15T18:20:43;13.55;;;7.10;;
49061;SDS011;34873;49.142;9.118;2022-11-15T18:23:11;13.70;;;6.50;;
49061;SDS011;34873;49.142;9.118;2022-11-15T18:25:36;14.73;;;7.15;;
49061;SDS011;34873;49.142;9.118;2022-11-15T18:28:02;14.00;;;7.78;;
49061;SDS011;34873;49.142;9.118;2022-11-15T18:30:28;11.93;;;7.03;;
49061;SDS011;34873;49.142;9.118;2022-11-15T18:32:58;13.52;;;6.15;;
49061;SDS011;34873;49.142;9.118;2022-11-15T18:35:28;12.07;;;6.95;;
49061;SDS011;34873;49.142;9.118;2022-11-15T18:37:53;12.02;;;6.20;;
49061;SDS011;34873;49.142;9.118;2022-11-15T18:40:20;12.30;;;6.65;;
49061;SDS011;34873;49.142;9.118;2022-11-15T18:42:45;12.55;;;6.50;;
49061;SDS011;34873;49.142;9.118;2022-11-15T18:45:13;13.25;;;5.88;;
49061;SDS011;34873;49.142;9.118;2022-11-15T18:47:41;14.40;;;7.40;;
49061;SDS011;34873;49.142;9.118;2022-11-15T18:50:06;12.48;;;6.40;;